VIDPRJAA

Guest
Details From VIDP - Indira Gandhi Intl
To RJAA - Narita Intl
Flight Number -
Tags Generated
Created
Modified
Stats Distance 3,191 nm / 5,910 km
Max Altitude 0 ft / 0 m
Waypoints 6
Social Downloads 3
Likes 0
Share VATSIM

Download

Looking for another format? Having issues loading an existing format? Contact us
Advertisement - Login to hide

Notes

Generated

Route

VIDP YNT MIROU KMC85 SHT25 RJAA

ID Type Via Altitude Latitude Longitude Leg Dist Tot Dist Heading (true) Name
O VIDP APT - 0 ft / 0 m 28.57049˚ 77.08804˚ - 0 nm - -
YNT VOR - 0 ft / 0 m 37.38667˚ 121.35667˚ 2270 nm 2270 nm 65° / 90° YANTAI VOR-DME
MIROU FIX - 0 ft / 0 m 37.24750˚ 126.47694˚ 244 nm 2515 nm 90° / 94° -
KMC85 FIX - 0 ft / 0 m 36.44617˚ 135.89207˚ 454 nm 2970 nm 93° / 99° -
SHT25 FIX - 0 ft / 0 m 35.84369˚ 140.01090˚ 202 nm 3173 nm 99° / 101° -
O RJAA APT - 0 ft / 0 m 35.80271˚ 140.37991˚ 18 nm 3191 nm 98° / 98° -

Altitude Profile

Advertisement - Login to hide

Weather


0- 5 10 15 20 25 30 35+ Temperature / ° C

Clouds and Precipitation
Forecast for 2017-12-16 18:00 UTC. Updated 2 hours ago

Ground ~20,000 ft ~40,000 ft Winds

VIDP

Details ICAO VIDP (DEL)
Name INDIRA GANDHI INTL
Region India
Timezone Asia/Kolkata (UTC+5.5)
Stats Elevation 777 ft / 237 m (AMSL)
Location 28.566496° 77.103090°
Runways 2
Magnetic Variation 1.217° E

METAR

VIDP 161500Z 26006KT 2100 FU NSC 13/07 Q1021 NOSIG

Decode

TAF

TAF VIDP 161100Z 1612/1718 30010KT 2100 FU NSC BECMG 1616/1618 28006KT 0800 MIFG BECMG 1622/1624 0300 FG BECMG 1704/1705 28008KT 0800 MIFG BECMG 1707/1708 2000 FU

Decode

Departure Runways

ID Width Length Bearing (true) Bearing (mag) Surface Threshold Offset Overrun Length
09 150 ft / 46 m 9,270 ft / 2,826 m 91.50° 90.28° Asphalt 0 ft / 0 m 195 ft / 59 m
10 150 ft / 46 m 12,488 ft / 3,807 m 104.67° 103.45° Asphalt 0 ft / 0 m 880 ft / 268 m
27 150 ft / 46 m 9,270 ft / 2,826 m 271.52° 270.30° Asphalt 499 ft / 152 m 0 ft / 0 m
28 150 ft / 46 m 12,488 ft / 3,807 m 284.69° 283.47° Asphalt 0 ft / 0 m 470 ft / 143 m

RJAA

Details ICAO RJAA (NRT)
Name NARITA INTL
Region Japan
Timezone Asia/Tokyo (UTC+9.0)
Stats Elevation 141 ft / 43 m (AMSL)
Location 35.776552° 140.382770°
Runways 2
Magnetic Variation 7.406° W

METAR

RJAA 161500Z 29003KT 250V320 9999 FEW030 BKN180 09/01 Q1006 NOSIG

Decode

TAF

TAF RJAA 161105Z 1612/1718 32010KT 9999 FEW030= TAF RJBB 161105Z 1612/1718 30022KT 9999 FEW025 SCT045 TEMPO 1612/1615 30025G35KT

Decode

Destination Runways

ID Width Length Bearing (true) Bearing (mag) Surface Threshold Offset Overrun Length
16L 196 ft / 60 m 7,162 ft / 2,183 m 149.61° 157.02° Asphalt 190 ft / 58 m 0 ft / 0 m
16R 196 ft / 60 m 13,142 ft / 4,006 m 149.61° 157.02° Asphalt 0 ft / 0 m 410 ft / 125 m
34L 196 ft / 60 m 13,142 ft / 4,006 m 329.62° 337.03° Asphalt 0 ft / 0 m 415 ft / 126 m
34R 196 ft / 60 m 7,162 ft / 2,183 m 329.62° 337.03° Asphalt 190 ft / 58 m 0 ft / 0 m

Approach Navaids

Runway Type Ident Frequency Range Bearing (true) Bearing (mag) Slope Elevation
16L Localiser ITM 110.70 MHz 18 nm / 33 km 149.62° 157.02° - 141 ft / 43 m (AMSL)
16L Glidescope ITM 110.70 MHz 10 nm / 19 km 149.62° 157.02° 3.00° 141 ft / 43 m (AMSL)
16L DME ITM 110.70 MHz 18 nm / 33 km - - - 145 ft / 44 m (AMSL)
16R Localiser IKF 111.50 MHz 18 nm / 33 km 149.63° 157.03° - 141 ft / 43 m (AMSL)
16R Glidescope IKF 111.50 MHz 10 nm / 19 km 149.62° 157.02° 3.00° 141 ft / 43 m (AMSL)
16R DME IKF 111.50 MHz 18 nm / 33 km - - - 145 ft / 44 m (AMSL)
34L Localiser IYQ 111.90 MHz 18 nm / 33 km 329.61° 337.01° - 141 ft / 43 m (AMSL)
34L Glidescope IYQ 111.90 MHz 10 nm / 19 km 329.62° 337.02° 3.00° 141 ft / 43 m (AMSL)
34L DME IYQ 111.90 MHz 18 nm / 33 km - - - 153 ft / 47 m (AMSL)
34R Localiser ITJ 110.90 MHz 18 nm / 33 km 329.62° 337.02° - 141 ft / 43 m (AMSL)
34R Glidescope ITJ 110.90 MHz 10 nm / 19 km 329.62° 337.02° 3.00° 141 ft / 43 m (AMSL)
34R DME ITJ 110.90 MHz 18 nm / 33 km - - - 148 ft / 45 m (AMSL)

Popular Alternatives